Time;durP1;ratioP1;P1;durP2;ratioP2;P2;SDS_P1;SDS_P2;PMS_P1;PMS_P2;Temp;Humidity;BMP_temperature;BMP_pressure;BME280_temperature;BME280_humidity;BME280_pressure;Samples;Min_cycle;Max_cycle;Signal;HPM_P1;HPM_P2
2020/12/01 00:00:16;;;;;;;1.83;1.70;;;5.60;99.90;;;;;;5089864;28;20206;-79
2020/12/01 00:02:42;;;;;;;0.73;0.73;;;5.70;99.90;;;;;;5080447;28;20175;-80
2020/12/01 00:05:09;;;;;;;0.10;0.10;;;5.70;99.90;;;;;;5090346;28;20178;-80
2020/12/01 00:07:35;;;;;;;0.20;0.20;;;5.70;99.90;;;;;;5073934;28;20167;-80
2020/12/01 00:10:00;;;;;;;1.17;1.13;;;5.70;99.90;;;;;;5087354;28;20640;-79
2020/12/01 00:12:26;;;;;;;0.30;0.30;;;5.70;99.90;;;;;;5089998;28;20604;-79
2020/12/01 00:14:51;;;;;;;0.40;0.40;;;5.70;99.90;;;;;;5072559;28;20175;-80
2020/12/01 00:17:17;;;;;;;0.50;0.40;;;5.70;99.90;;;;;;5086892;28;20646;-79
2020/12/01 00:19:42;;;;;;;0.23;0.23;;;5.60;99.90;;;;;;5091081;28;20239;-79
2020/12/01 00:22:08;;;;;;;0.93;0.93;;;5.70;99.90;;;;;;5073867;28;20243;-80
2020/12/01 00:24:33;;;;;;;0.93;0.93;;;5.70;99.90;;;;;;5093352;28;20170;-80
2020/12/01 00:26:59;;;;;;;1.43;1.10;;;5.60;99.90;;;;;;5082968;28;20178;-79
2020/12/01 00:29:24;;;;;;;1.23;1.17;;;5.60;99.90;;;;;;5074535;28;20171;-79
2020/12/01 00:31:50;;;;;;;0.50;0.43;;;5.70;99.90;;;;;;5093223;28;20201;-80
2020/12/01 00:34:16;;;;;;;0.50;0.50;;;5.70;99.90;;;;;;5087742;28;20170;-80
2020/12/01 00:36:41;;;;;;;1.20;1.13;;;5.60;99.90;;;;;;5093130;28;20167;-80
2020/12/01 00:39:09;;;;;;;1.17;1.17;;;5.60;99.90;;;;;;5092302;28;20173;-80
2020/12/01 00:41:35;;;;;;;0.73;0.70;;;5.70;99.90;;;;;;5077500;28;20206;-80
2020/12/01 00:44:00;;;;;;;0.37;0.37;;;5.70;99.90;;;;;;5074681;28;20175;-80
2020/12/01 00:46:28;;;;;;;0.10;0.10;;;5.70;99.90;;;;;;5073406;28;20554;-80
2020/12/01 00:48:54;;;;;;;0.30;0.30;;;5.70;99.90;;;;;;5071960;28;20182;-80
2020/12/01 00:51:19;;;;;;;3.10;1.77;;;5.70;99.90;;;;;;5073327;28;20206;-80
2020/12/01 00:53:45;;;;;;;0.70;0.70;;;5.70;99.90;;;;;;5075352;28;20185;-80
2020/12/01 00:56:11;;;;;;;1.20;0.40;;;5.70;99.90;;;;;;5089611;28;20651;-81
2020/12/01 00:58:37;;;;;;;0.40;0.40;;;5.70;99.90;;;;;;5086648;28;20162;-80
2020/12/01 01:01:03;;;;;;;1.47;1.00;;;5.70;99.90;;;;;;5091473;28;20204;-80
2020/12/01 01:03:29;;;;;;;0.00;0.00;;;5.60;99.90;;;;;;5093169;28;20569;-80
2020/12/01 01:05:54;;;;;;;1.00;1.00;;;5.60;99.90;;;;;;5073048;28;20175;-80
2020/12/01 01:08:20;;;;;;;1.70;1.23;;;5.60;99.90;;;;;;5090398;28;20171;-80
2020/12/01 01:10:46;;;;;;;0.10;0.10;;;5.60;99.90;;;;;;5091845;28;20209;-80
2020/12/01 01:13:12;;;;;;;0.63;0.63;;;5.60;99.90;;;;;;5086291;28;20637;-80
2020/12/01 01:15:38;;;;;;;3.60;1.07;;;5.60;99.90;;;;;;5083868;28;20210;-80
2020/12/01 01:18:04;;;;;;;0.40;0.40;;;5.70;99.90;;;;;;5083000;28;20170;-80
2020/12/01 01:20:30;;;;;;;0.23;0.23;;;5.70;99.90;;;;;;5089762;28;20752;-80
2020/12/01 01:22:56;;;;;;;0.30;0.30;;;5.60;99.90;;;;;;5077152;28;20193;-81
2020/12/01 01:25:22;;;;;;;0.33;0.27;;;5.70;99.90;;;;;;5091937;28;20561;-80
2020/12/01 01:27:48;;;;;;;0.30;0.30;;;5.70;99.90;;;;;;5089808;28;20181;-80
2020/12/01 01:30:19;;;;;;;1.13;0.63;;;5.70;99.90;;;;;;5075576;28;20274;-80
2020/12/01 01:32:45;;;;;;;0.10;0.10;;;5.70;99.90;;;;;;5090864;28;20233;-81
2020/12/01 01:35:10;;;;;;;0.17;0.17;;;5.80;99.90;;;;;;5089325;28;20171;-80
2020/12/01 01:37:36;;;;;;;0.40;0.40;;;5.80;99.90;;;;;;5078801;28;20162;-80
2020/12/01 01:40:03;;;;;;;0.93;0.93;;;5.80;99.90;;;;;;5097463;28;20258;-80
2020/12/01 01:42:28;;;;;;;0.90;0.90;;;5.70;99.90;;;;;;5096232;28;20198;-80
2020/12/01 01:44:54;;;;;;;0.90;0.70;;;5.80;99.90;;;;;;5093434;28;20174;-80
2020/12/01 01:47:26;;;;;;;0.77;0.77;;;5.80;99.90;;;;;;5076475;28;20508;-80
2020/12/01 01:50:09;;;;;;;0.37;0.37;;;5.80;99.90;;;;;;5089184;28;20212;-80
2020/12/01 01:52:38;;;;;;;0.40;0.40;;;5.80;99.90;;;;;;5094976;28;20162;-80
2020/12/01 01:55:17;;;;;;;0.60;0.60;;;5.80;99.90;;;;;;5095826;28;20166;-81
2020/12/01 01:57:47;;;;;;;1.03;0.67;;;5.80;99.90;;;;;;5095333;28;20158;-81
2020/12/01 02:00:35;;;;;;;0.30;0.30;;;5.80;99.90;;;;;;5079228;28;20182;-81
2020/12/01 02:03:01;;;;;;;0.20;0.20;;;5.80;99.90;;;;;;5076468;28;20158;-81
2020/12/01 02:05:26;;;;;;;0.50;0.50;;;5.80;99.90;;;;;;5084807;28;20535;-80
2020/12/01 02:07:52;;;;;;;0.67;0.67;;;5.80;99.90;;;;;;5076491;28;20175;-80
2020/12/01 02:10:18;;;;;;;1.03;1.03;;;5.80;99.90;;;;;;5076520;28;20203;-81
2020/12/01 02:12:46;;;;;;;0.30;0.30;;;5.80;99.90;;;;;;5075090;28;20217;-81
2020/12/01 02:15:12;;;;;;;0.63;0.63;;;5.80;99.90;;;;;;5080163;28;20174;-80
2020/12/01 02:17:38;;;;;;;0.97;0.97;;;5.90;99.90;;;;;;5093424;28;20170;-81
2020/12/01 02:20:11;;;;;;;0.93;0.93;;;5.90;99.90;;;;;;5086863;28;20174;-80
2020/12/01 02:22:39;;;;;;;1.53;1.43;;;5.90;99.90;;;;;;5093937;28;20166;-80
2020/12/01 02:25:05;;;;;;;1.73;1.70;;;5.90;99.90;;;;;;5092081;28;20182;-80
2020/12/01 02:27:30;;;;;;;0.47;0.47;;;5.90;99.90;;;;;;5074505;28;20204;-81
2020/12/01 02:29:58;;;;;;;2.63;1.73;;;5.90;99.90;;;;;;5075493;28;20202;-81
2020/12/01 02:32:26;;;;;;;0.40;0.40;;;5.90;99.90;;;;;;5101211;22;20643;-78
2020/12/01 02:34:53;;;;;;;2.00;0.50;;;5.90;99.90;;;;;;5096233;28;20178;-77
2020/12/01 02:37:24;;;;;;;0.53;0.53;;;6.00;99.90;;;;;;5094589;28;20174;-78
2020/12/01 02:39:50;;;;;;;1.93;1.83;;;5.90;99.90;;;;;;5094602;28;20166;-78
2020/12/01 02:52:30;;;;;;;0.67;0.67;;;6.00;99.90;;;;;;5116125;28;20201;-79
2020/12/01 02:54:55;;;;;;;0.37;0.37;;;6.00;99.90;;;;;;5116331;28;20294;-80
2020/12/01 02:57:21;;;;;;;0.63;0.63;;;5.90;99.90;;;;;;5115940;28;20326;-80
2020/12/01 02:59:46;;;;;;;0.20;0.20;;;6.00;99.90;;;;;;5116359;28;20166;-80
2020/12/01 03:02:12;;;;;;;2.73;1.33;;;6.00;99.90;;;;;;5097576;28;20170;-79
2020/12/01 03:08:15;;;;;;;1.40;1.40;;;6.00;99.90;;;;;;5116480;28;20173;-80
2020/12/01 03:10:40;;;;;;;0.70;0.70;;;6.00;99.90;;;;;;5097517;28;20288;-79
2020/12/01 03:13:06;;;;;;;0.17;0.17;;;6.00;99.90;;;;;;5115727;28;20612;-80
2020/12/01 03:15:31;;;;;;;1.03;0.93;;;6.00;99.90;;;;;;5116011;28;20521;-80
2020/12/01 03:17:57;;;;;;;0.33;0.33;;;6.00;99.90;;;;;;5097431;28;20185;-80
2020/12/01 03:20:23;;;;;;;1.13;1.13;;;6.00;99.90;;;;;;5115584;28;20201;-80
2020/12/01 03:22:48;;;;;;;1.53;1.43;;;6.00;99.90;;;;;;5115872;28;20196;-80
2020/12/01 03:25:14;;;;;;;0.60;0.53;;;6.00;99.90;;;;;;5115397;28;20166;-80
2020/12/01 03:27:39;;;;;;;1.37;1.27;;;6.00;99.90;;;;;;5097329;28;20748;-80
2020/12/01 03:30:06;;;;;;;1.20;1.20;;;6.00;99.90;;;;;;5097072;28;20598;-80
2020/12/01 03:32:32;;;;;;;1.47;1.37;;;6.00;99.90;;;;;;5096949;28;20208;-80
2020/12/01 03:34:57;;;;;;;1.90;1.60;;;6.00;99.90;;;;;;5114612;28;20153;-80
2020/12/01 03:37:23;;;;;;;0.77;0.77;;;6.00;99.90;;;;;;5097120;28;20227;-79
2020/12/01 03:39:48;;;;;;;0.60;0.60;;;6.00;99.90;;;;;;5115517;28;20173;-80
2020/12/01 03:42:14;;;;;;;2.87;1.27;;;6.00;99.90;;;;;;5096937;28;20579;-80
2020/12/01 03:44:39;;;;;;;0.17;0.17;;;6.00;99.90;;;;;;5097136;28;20644;-80
2020/12/01 03:47:05;;;;;;;0.50;0.50;;;6.00;99.90;;;;;;5097001;28;20288;-80
2020/12/01 03:49:30;;;;;;;0.43;0.43;;;6.10;99.90;;;;;;5115503;28;20217;-80
2020/12/01 03:51:57;;;;;;;0.83;0.53;;;6.00;99.90;;;;;;5115049;28;20176;-80
2020/12/01 03:54:22;;;;;;;0.37;0.33;;;6.10;99.90;;;;;;5115132;28;20189;-80
2020/12/01 03:56:48;;;;;;;1.47;1.47;;;6.10;99.90;;;;;;5115003;28;20187;-80
2020/12/01 03:59:13;;;;;;;0.77;0.53;;;6.10;99.90;;;;;;5096574;28;20171;-80
2020/12/01 04:01:39;;;;;;;0.63;0.63;;;6.10;99.90;;;;;;5096578;28;20181;-80
2020/12/01 04:04:04;;;;;;;0.40;0.40;;;6.10;99.90;;;;;;5114710;28;20193;-80
2020/12/01 04:06:30;;;;;;;0.60;0.60;;;6.20;99.90;;;;;;5114740;28;20208;-80
2020/12/01 04:08:55;;;;;;;1.57;1.50;;;6.20;99.90;;;;;;5114798;28;20188;-80
2020/12/01 04:11:24;;;;;;;0.77;0.77;;;6.20;99.90;;;;;;5114629;28;20242;-80
2020/12/01 04:13:50;;;;;;;0.30;0.30;;;6.20;99.90;;;;;;5096326;28;20243;-80
2020/12/01 04:16:15;;;;;;;2.30;1.20;;;6.20;99.90;;;;;;5115009;28;20260;-80
2020/12/01 04:18:41;;;;;;;1.10;0.77;;;6.20;99.90;;;;;;5114634;28;20649;-80
2020/12/01 04:21:06;;;;;;;1.27;1.27;;;6.20;99.90;;;;;;5096377;28;20258;-80
2020/12/01 04:23:32;;;;;;;0.30;0.30;;;6.30;99.90;;;;;;5096283;28;20280;-80
2020/12/01 04:25:57;;;;;;;1.47;1.10;;;6.30;99.90;;;;;;5096304;28;20180;-80
2020/12/01 04:28:23;;;;;;;0.53;0.53;;;6.30;99.90;;;;;;5114628;28;20175;-80
2020/12/01 04:30:48;;;;;;;0.50;0.50;;;6.30;99.90;;;;;;5114337;28;20189;-80
2020/12/01 04:33:14;;;;;;;0.87;0.87;;;6.30;99.90;;;;;;5114218;28;20277;-80
2020/12/01 04:35:40;;;;;;;0.87;0.87;;;6.30;99.90;;;;;;5096158;28;20165;-80
2020/12/01 04:38:06;;;;;;;0.93;0.93;;;6.30;99.90;;;;;;5096043;28;20169;-80
2020/12/01 04:40:36;;;;;;;1.00;1.00;;;6.30;99.90;;;;;;5095935;28;20162;-80
2020/12/01 04:43:23;;;;;;;2.20;1.37;;;6.30;99.90;;;;;;5114683;28;20586;-80
2020/12/01 04:45:51;;;;;;;0.30;0.30;;;6.30;99.90;;;;;;5099042;28;20526;-79
2020/12/01 04:48:26;;;;;;;2.00;1.00;;;6.30;99.90;;;;;;5106185;28;20214;-78
2020/12/01 04:50:58;;;;;;;0.40;0.40;;;6.30;99.90;;;;;;5124864;28;20185;-79
2020/12/01 04:53:50;;;;;;;1.67;1.57;;;6.30;99.90;;;;;;5106605;28;20218;-78
2020/12/01 04:56:34;;;;;;;1.50;1.03;;;6.30;99.90;;;;;;5106840;28;20159;-79
2020/12/01 04:59:24;;;;;;;0.53;0.53;;;6.30;99.90;;;;;;5106291;28;20177;-79
2020/12/01 05:02:38;;;;;;;0.37;0.37;;;6.30;99.90;;;;;;5106544;28;20207;-79
2020/12/01 05:05:24;;;;;;;1.03;0.70;;;6.30;99.90;;;;;;5106880;28;20165;-79
2020/12/01 05:08:30;;;;;;;0.33;0.33;;;6.30;99.90;;;;;;5125053;28;20242;-79
2020/12/01 05:11:00;;;;;;;1.60;1.50;;;6.30;99.90;;;;;;5106764;28;20196;-78
2020/12/01 05:13:33;;;;;;;1.30;1.30;;;6.30;99.90;;;;;;5124460;28;20189;-78
2020/12/01 05:16:14;;;;;;;0.90;0.90;;;6.20;99.90;;;;;;5106505;28;20181;-78
2020/12/01 05:18:41;;;;;;;0.67;0.67;;;6.30;99.90;;;;;;5125205;28;20144;-78
2020/12/01 05:21:08;;;;;;;0.83;0.40;;;6.30;99.90;;;;;;5107025;28;20260;-78
2020/12/01 05:23:54;;;;;;;1.43;1.33;;;6.30;99.90;;;;;;5124694;28;20185;-78
2020/12/01 05:26:22;;;;;;;1.10;1.10;;;6.30;99.90;;;;;;5106797;28;20186;-79
2020/12/01 05:28:49;;;;;;;0.40;0.40;;;6.30;99.90;;;;;;5106855;28;20180;-79
2020/12/01 05:31:16;;;;;;;4.60;1.00;;;6.30;99.90;;;;;;5106744;28;20258;-78
2020/12/01 05:33:42;;;;;;;1.20;1.10;;;6.40;99.90;;;;;;5106380;28;20231;-79
2020/12/01 05:36:18;;;;;;;1.13;1.03;;;6.30;99.90;;;;;;5124267;28;20162;-79
2020/12/01 05:38:57;;;;;;;1.50;0.50;;;6.40;99.90;;;;;;5106689;28;20171;-78
2020/12/01 05:41:27;;;;;;;1.87;1.77;;;6.40;99.90;;;;;;5125156;28;20162;-79
2020/12/01 05:43:56;;;;;;;1.70;1.50;;;6.40;99.90;;;;;;5107090;28;20198;-79
2020/12/01 05:46:36;;;;;;;0.83;0.83;;;6.50;99.90;;;;;;5125120;28;20170;-79
2020/12/01 05:49:04;;;;;;;1.47;1.47;;;6.50;99.90;;;;;;5106663;28;20195;-78
2020/12/01 05:51:46;;;;;;;0.30;0.30;;;6.50;99.90;;;;;;5106628;28;20209;-78
2020/12/01 05:54:16;;;;;;;1.90;1.80;;;6.50;99.90;;;;;;5106939;28;20193;-78
2020/12/01 05:56:50;;;;;;;1.00;0.73;;;6.50;99.90;;;;;;5106626;28;20181;-78
2020/12/01 05:59:20;;;;;;;0.67;0.67;;;6.50;99.90;;;;;;5110535;28;20171;-79
2020/12/01 06:01:53;;;;;;;1.20;1.07;;;6.50;99.90;;;;;;5128723;28;20175;-79
2020/12/01 06:04:24;;;;;;;0.60;0.60;;;6.50;99.90;;;;;;5110686;28;20280;-78
2020/12/01 06:07:06;;;;;;;1.47;1.27;;;6.50;99.90;;;;;;5110536;28;20182;-78
2020/12/01 06:09:54;;;;;;;1.53;1.40;;;6.50;99.90;;;;;;5110467;28;20173;-79
2020/12/01 06:12:57;;;;;;;2.13;2.03;;;6.60;99.90;;;;;;5110503;28;20221;-79
2020/12/01 06:15:22;;;;;;;1.40;1.03;;;6.60;99.90;;;;;;5026600;28;20182;-78
2020/12/01 06:18:16;;;;;;;2.00;1.83;;;6.60;99.90;;;;;;5128679;28;20173;-78
2020/12/01 06:21:00;;;;;;;0.63;0.63;;;6.60;99.90;;;;;;5110182;28;20172;-78
2020/12/01 06:23:48;;;;;;;2.10;2.00;;;6.60;99.90;;;;;;5128955;28;20192;-78
2020/12/01 06:26:35;;;;;;;0.90;0.90;;;6.70;99.90;;;;;;5128576;28;20189;-79
2020/12/01 06:29:25;;;;;;;2.60;2.17;;;6.80;99.90;;;;;;5110477;28;20199;-78
2020/12/01 06:32:16;;;;;;;0.80;0.80;;;6.80;99.90;;;;;;5110047;28;20219;-79
2020/12/01 06:35:06;;;;;;;1.40;1.30;;;6.80;99.90;;;;;;5129679;28;20164;-79
2020/12/01 06:37:45;;;;;;;1.93;1.83;;;6.80;99.90;;;;;;5128339;28;20157;-78
2020/12/01 06:40:31;;;;;;;1.20;1.20;;;6.80;99.90;;;;;;5128908;28;20160;-79
2020/12/01 06:43:26;;;;;;;2.97;2.33;;;6.80;99.90;;;;;;5110642;28;20265;-78
2020/12/01 06:45:55;;;;;;;1.57;1.27;;;6.80;99.90;;;;;;5117342;28;20195;-78
2020/12/01 06:48:32;;;;;;;0.90;0.90;;;6.80;99.90;;;;;;5110863;28;20172;-79
2020/12/01 06:51:00;;;;;;;1.27;1.23;;;6.80;99.90;;;;;;5110732;28;20224;-79
2020/12/01 06:53:28;;;;;;;2.47;1.60;;;6.80;99.90;;;;;;5109980;28;20284;-78
2020/12/01 06:56:18;;;;;;;0.83;0.83;;;6.70;99.90;;;;;;5109690;28;20169;-78
2020/12/01 06:58:49;;;;;;;1.77;1.67;;;6.80;99.90;;;;;;5108073;28;20428;-79
2020/12/01 07:01:17;;;;;;;1.50;1.30;;;6.80;99.90;;;;;;5109350;28;20444;-78
2020/12/01 07:03:46;;;;;;;2.00;1.53;;;6.80;99.90;;;;;;5126084;28;20219;-79
2020/12/01 07:06:34;;;;;;;3.37;2.77;;;6.90;99.90;;;;;;5129174;28;20178;-79
2020/12/01 07:09:09;;;;;;;1.83;1.67;;;6.90;99.90;;;;;;5109651;28;20192;-78
2020/12/01 07:11:51;;;;;;;1.53;1.00;;;6.90;99.90;;;;;;5128819;28;20197;-79
2020/12/01 07:14:43;;;;;;;4.45;3.88;;;6.90;99.90;;;;;;5106342;28;20819;-78
2020/12/01 07:17:29;;;;;;;3.37;2.83;;;6.90;99.90;;;;;;5087532;28;20182;-78
2020/12/01 07:20:17;;;;;;;2.00;1.67;;;7.00;99.90;;;;;;5101602;28;20165;-78
2020/12/01 07:22:59;;;;;;;0.57;0.57;;;7.00;99.90;;;;;;5100045;28;20192;-78
2020/12/01 07:25:55;;;;;;;3.43;1.57;;;7.00;99.90;;;;;;5099156;28;20156;-78
2020/12/01 07:28:29;;;;;;;1.77;1.67;;;7.00;99.90;;;;;;5097477;28;20168;-78
2020/12/01 07:31:02;;;;;;;3.60;2.80;;;7.00;99.90;;;;;;5115456;28;20174;-77
2020/12/01 07:33:34;;;;;;;1.57;1.47;;;7.00;99.90;;;;;;5097369;28;20214;-78
2020/12/01 07:36:26;;;;;;;2.63;2.50;;;7.00;99.90;;;;;;5116070;28;20158;-78
2020/12/01 07:39:08;;;;;;;2.00;1.90;;;7.00;99.90;;;;;;5116025;28;20152;-78
2020/12/01 07:41:33;;;;;;;1.73;1.53;;;7.00;99.90;;;;;;5115513;28;20160;-78
2020/12/01 07:44:06;;;;;;;1.53;1.53;;;7.00;99.90;;;;;;5098097;28;20285;-78
2020/12/01 07:46:48;;;;;;;1.70;1.60;;;7.00;99.90;;;;;;5117635;28;20159;-78
2020/12/01 07:49:13;;;;;;;4.37;2.63;;;7.00;99.90;;;;;;5098051;28;20199;-78
2020/12/01 07:51:40;;;;;;;2.10;1.90;;;7.00;99.90;;;;;;5116836;28;20215;-78
2020/12/01 07:54:07;;;;;;;4.63;2.43;;;7.00;99.90;;;;;;5116660;28;20272;-78
2020/12/01 07:56:32;;;;;;;2.73;2.57;;;7.00;99.90;;;;;;5117035;28;20164;-78
2020/12/01 07:59:02;;;;;;;2.57;2.37;;;7.10;99.90;;;;;;5097185;28;20185;-78
2020/12/01 08:01:27;;;;;;;3.03;2.53;;;7.00;99.90;;;;;;5115258;28;20164;-79
2020/12/01 08:04:04;;;;;;;2.63;2.53;;;7.10;99.90;;;;;;5115444;28;20187;-78
2020/12/01 08:06:29;;;;;;;1.87;1.77;;;7.10;99.90;;;;;;5098885;28;20155;-78
2020/12/01 08:08:55;;;;;;;4.43;4.03;;;7.20;99.90;;;;;;5117719;28;20187;-78
2020/12/01 08:11:22;;;;;;;2.30;2.20;;;7.10;99.90;;;;;;5115908;28;20248;-78
2020/12/01 08:13:53;;;;;;;1.27;1.17;;;7.20;99.90;;;;;;5117762;28;20243;-79
2020/12/01 08:16:25;;;;;;;3.50;2.53;;;7.10;99.90;;;;;;5119263;28;20160;-78
2020/12/01 08:18:52;;;;;;;2.10;1.87;;;7.10;99.90;;;;;;5106107;28;20608;-78
2020/12/01 08:21:21;;;;;;;2.07;1.97;;;7.20;99.90;;;;;;5115262;28;20204;-78
2020/12/01 08:23:51;;;;;;;1.93;1.83;;;7.20;99.90;;;;;;5116830;28;20203;-78
2020/12/01 08:26:27;;;;;;;3.23;3.03;;;7.20;99.90;;;;;;5117544;28;20169;-78
2020/12/01 08:29:15;;;;;;;2.60;2.50;;;7.20;99.90;;;;;;5099501;28;20239;-79
2020/12/01 08:31:56;;;;;;;2.17;2.07;;;7.30;99.90;;;;;;5117904;28;20187;-78
2020/12/01 08:34:34;;;;;;;4.73;3.47;;;7.30;99.90;;;;;;5098235;28;20253;-78
2020/12/01 08:37:22;;;;;;;3.17;2.93;;;7.20;99.90;;;;;;5099029;28;20162;-79
2020/12/01 08:39:56;;;;;;;1.37;1.27;;;7.30;99.90;;;;;;5115582;28;20243;-78
2020/12/01 08:42:49;;;;;;;1.73;1.63;;;7.30;99.90;;;;;;5095854;28;20275;-78
2020/12/01 08:45:33;;;;;;;3.37;3.07;;;7.30;99.90;;;;;;5095915;28;20162;-78
2020/12/01 08:48:02;;;;;;;2.57;2.33;;;7.40;99.90;;;;;;5114135;28;20154;-78
2020/12/01 08:50:35;;;;;;;3.87;3.57;;;7.40;99.90;;;;;;5113876;28;20187;-78
2020/12/01 08:53:22;;;;;;;2.37;2.17;;;7.40;99.90;;;;;;5095838;28;20675;-78
2020/12/01 08:55:58;;;;;;;2.13;2.03;;;7.50;99.90;;;;;;5095817;28;20607;-78
2020/12/01 08:58:27;;;;;;;2.00;1.90;;;7.50;99.90;;;;;;5113992;28;20151;-78
2020/12/01 09:00:58;;;;;;;4.00;1.80;;;7.50;99.90;;;;;;5095547;28;20200;-78
2020/12/01 09:03:24;;;;;;;4.57;3.20;;;7.60;99.90;;;;;;5113683;28;20728;-78
2020/12/01 09:05:50;;;;;;;2.03;1.87;;;7.50;99.90;;;;;;5113947;28;20172;-78
2020/12/01 09:11:04;;;;;;;4.53;4.20;;;7.60;99.90;;;;;;5114028;28;20636;-78
2020/12/01 09:13:32;;;;;;;0.83;0.83;;;7.70;99.90;;;;;;5114003;28;20180;-78
2020/12/01 09:16:52;;;;;;;2.30;2.20;;;7.70;99.90;;;;;;5114262;28;20714;-78
2020/12/01 09:22:24;;;;;;;1.53;1.43;;;7.70;99.90;;;;;;5114068;28;20571;-78
2020/12/01 09:24:50;;;;;;;4.40;2.87;;;7.70;99.90;;;;;;5095944;28;20165;-78
2020/12/01 09:27:18;;;;;;;2.17;2.07;;;7.70;99.90;;;;;;5098502;28;20606;-78
2020/12/01 09:29:49;;;;;;;1.43;1.27;;;7.70;99.90;;;;;;5096119;28;20196;-78
2020/12/01 09:32:23;;;;;;;1.37;1.30;;;7.70;99.90;;;;;;5114373;28;20165;-78
2020/12/01 09:34:49;;;;;;;2.20;2.03;;;7.70;99.90;;;;;;5117532;28;20213;-77
2020/12/01 09:37:16;;;;;;;2.33;2.03;;;7.70;99.90;;;;;;5099207;28;20260;-78
2020/12/01 09:39:41;;;;;;;1.47;1.37;;;7.70;99.90;;;;;;5099089;28;20544;-78
2020/12/01 09:42:24;;;;;;;0.73;0.73;;;7.80;99.90;;;;;;5117419;28;20240;-78
2020/12/01 09:45:02;;;;;;;2.07;1.97;;;7.80;99.90;;;;;;5099130;28;20674;-78
2020/12/01 09:49:56;;;;;;;1.07;0.97;;;7.80;99.90;;;;;;5118767;28;20686;-80
2020/12/01 09:52:27;;;;;;;1.60;1.53;;;7.80;99.90;;;;;;5099682;28;20221;-78
2020/12/01 09:55:26;;;;;;;1.00;1.00;;;7.80;99.90;;;;;;5117874;28;20145;-78
2020/12/01 10:10:59;;;;;;;1.00;1.00;;;7.90;99.90;;;;;;5117090;28;20265;-78
2020/12/01 10:13:43;;;;;;;3.20;2.17;;;8.00;99.90;;;;;;5099527;28;20192;-78
2020/12/01 10:27:13;;;;;;;1.27;1.17;;;8.00;99.90;;;;;;5117976;28;20612;-78
2020/12/01 10:34:01;;;;;;;0.63;0.63;;;8.00;99.90;;;;;;5116413;28;20211;-78
2020/12/01 10:35:24;;;;;;;0.50;0.50;;;8.00;99.90;;;;;;5116176;28;20692;-78
2020/12/01 10:37:55;;;;;;;0.97;0.90;;;8.00;99.90;;;;;;5098949;28;20256;-78
2020/12/01 10:40:22;;;;;;;0.70;0.70;;;8.10;99.90;;;;;;5116665;28;20177;-78
2020/12/01 10:42:48;;;;;;;2.00;1.53;;;8.10;99.90;;;;;;5116037;28;20205;-78
2020/12/01 10:45:16;;;;;;;0.77;0.77;;;8.10;99.90;;;;;;5116205;28;20197;-78
2020/12/01 10:47:42;;;;;;;0.60;0.60;;;8.10;99.90;;;;;;5097805;28;20630;-78
2020/12/01 10:50:07;;;;;;;0.83;0.83;;;8.10;99.90;;;;;;5097766;28;20193;-78
2020/12/01 10:52:33;;;;;;;1.00;1.00;;;8.20;99.90;;;;;;5115959;28;20238;-78
2020/12/01 10:54:59;;;;;;;4.00;1.80;;;8.20;99.90;;;;;;5097652;28;20172;-78
2020/12/01 10:57:24;;;;;;;0.43;0.43;;;8.20;99.90;;;;;;5101459;28;20165;-78
2020/12/01 10:59:50;;;;;;;0.73;0.40;;;8.20;99.90;;;;;;5117809;28;20252;-78
2020/12/01 11:02:15;;;;;;;1.07;0.63;;;8.20;99.90;;;;;;5098497;28;20253;-78
2020/12/01 11:04:41;;;;;;;1.23;1.13;;;8.20;99.90;;;;;;5116256;28;20161;-78
2020/12/01 11:07:06;;;;;;;0.43;0.43;;;8.20;99.90;;;;;;5115993;28;20165;-78
2020/12/01 11:09:32;;;;;;;0.47;0.47;;;8.20;99.90;;;;;;5097544;28;20194;-78
2020/12/01 11:11:59;;;;;;;0.87;0.43;;;8.20;99.90;;;;;;5115614;28;20253;-78
2020/12/01 11:14:25;;;;;;;0.40;0.40;;;8.20;99.90;;;;;;5097451;28;20200;-78
2020/12/01 11:16:50;;;;;;;0.63;0.50;;;8.30;99.90;;;;;;5115553;28;20267;-78
2020/12/01 11:19:16;;;;;;;1.00;1.00;;;8.30;99.90;;;;;;5117075;28;20188;-77
2020/12/01 11:21:41;;;;;;;0.60;0.60;;;8.30;99.90;;;;;;5115526;28;20173;-77
2020/12/01 11:24:07;;;;;;;0.60;0.60;;;8.30;99.90;;;;;;5115388;28;20197;-77
2020/12/01 11:26:32;;;;;;;0.57;0.43;;;8.30;99.90;;;;;;5115315;28;20168;-77
2020/12/01 11:28:58;;;;;;;0.47;0.40;;;8.30;99.90;;;;;;5097024;28;20249;-77
2020/12/01 11:31:24;;;;;;;1.00;0.70;;;8.30;99.90;;;;;;5115199;28;20178;-77
2020/12/01 11:34:07;;;;;;;1.60;1.50;;;8.30;99.90;;;;;;5114934;28;20200;-77
2020/12/01 11:36:34;;;;;;;0.57;0.43;;;8.30;99.90;;;;;;5096877;28;20188;-77
2020/12/01 11:39:01;;;;;;;0.70;0.37;;;8.30;99.90;;;;;;5115316;28;20170;-78
2020/12/01 11:41:27;;;;;;;3.60;1.33;;;8.30;99.90;;;;;;5115006;28;20165;-78
2020/12/01 11:43:53;;;;;;;0.60;0.60;;;8.30;99.90;;;;;;5114951;28;20235;-78
2020/12/01 11:46:19;;;;;;;0.57;0.40;;;8.30;99.90;;;;;;5114919;28;20169;-77
2020/12/01 11:48:45;;;;;;;0.83;0.47;;;8.30;99.90;;;;;;5096690;28;20541;-77
2020/12/01 11:51:12;;;;;;;0.80;0.73;;;8.30;99.90;;;;;;5114890;28;20194;-78
2020/12/01 11:53:38;;;;;;;1.47;1.07;;;8.40;99.90;;;;;;5096450;28;20214;-77
2020/12/01 11:56:04;;;;;;;0.50;0.50;;;8.40;99.90;;;;;;5114116;28;20164;-78
2020/12/01 11:58:30;;;;;;;0.60;0.60;;;8.50;99.90;;;;;;5096501;28;20196;-77
2020/12/01 12:00:55;;;;;;;0.30;0.30;;;8.50;99.90;;;;;;5096834;28;20529;-78
2020/12/01 12:03:21;;;;;;;0.17;0.17;;;8.50;99.90;;;;;;5113964;28;20672;-79
2020/12/01 12:05:46;;;;;;;0.63;0.63;;;8.50;99.90;;;;;;5104106;28;20165;-78
2020/12/01 12:08:12;;;;;;;0.30;0.30;;;8.60;99.90;;;;;;5105318;28;20291;-79
2020/12/01 12:10:37;;;;;;;0.67;0.67;;;8.60;99.90;;;;;;5114346;28;20323;-78
2020/12/01 12:13:03;;;;;;;0.60;0.50;;;8.50;99.90;;;;;;5114561;28;20549;-78
2020/12/01 12:15:29;;;;;;;0.60;0.60;;;8.60;99.90;;;;;;5096128;28;20654;-78
2020/12/01 12:17:54;;;;;;;7.13;1.00;;;8.60;99.90;;;;;;5114328;28;20161;-78
2020/12/01 12:20:20;;;;;;;0.50;0.40;;;8.60;99.90;;;;;;5096088;28;20641;-78
2020/12/01 12:22:46;;;;;;;1.23;1.23;;;8.60;99.90;;;;;;5114442;28;20184;-78
2020/12/01 12:25:12;;;;;;;0.40;0.40;;;8.70;99.90;;;;;;5114489;28;20611;-78
2020/12/01 12:27:38;;;;;;;0.70;0.70;;;8.60;99.90;;;;;;5095967;28;20173;-78
2020/12/01 12:30:04;;;;;;;0.63;0.60;;;8.60;99.90;;;;;;5095890;28;20193;-78
2020/12/01 12:32:29;;;;;;;2.70;0.90;;;8.60;99.90;;;;;;5095842;28;20677;-78
2020/12/01 12:34:55;;;;;;;0.90;0.90;;;8.70;99.90;;;;;;5114420;28;20147;-78
2020/12/01 12:37:20;;;;;;;0.80;0.80;;;8.70;99.90;;;;;;5114369;28;20169;-78
2020/12/01 12:39:46;;;;;;;0.60;0.60;;;8.70;99.90;;;;;;5096641;28;20166;-78
2020/12/01 12:42:12;;;;;;;1.33;1.00;;;8.70;99.90;;;;;;5097757;28;20219;-78
2020/12/01 12:44:37;;;;;;;0.50;0.50;;;8.70;99.90;;;;;;5101134;28;20251;-80
2020/12/01 12:47:03;;;;;;;0.23;0.23;;;8.70;99.90;;;;;;5102446;28;20161;-79
2020/12/01 12:49:28;;;;;;;0.43;0.43;;;8.70;99.90;;;;;;5103518;28;20204;-78
2020/12/01 12:51:54;;;;;;;0.77;0.77;;;8.80;99.90;;;;;;5121909;28;20216;-79
2020/12/01 12:54:20;;;;;;;0.50;0.50;;;8.80;99.90;;;;;;5120442;28;20248;-78
2020/12/01 12:56:45;;;;;;;0.13;0.13;;;8.80;99.90;;;;;;5115863;28;20165;-78
2020/12/01 12:59:11;;;;;;;0.43;0.43;;;8.70;99.90;;;;;;5113797;28;20222;-78
2020/12/01 13:01:36;;;;;;;0.47;0.20;;;8.80;99.90;;;;;;5114361;28;20215;-78
2020/12/01 13:04:02;;;;;;;0.60;0.43;;;8.80;99.90;;;;;;5115315;28;20189;-78
2020/12/01 13:06:28;;;;;;;0.00;0.00;;;8.80;99.90;;;;;;5097125;28;20173;-78
2020/12/01 13:08:53;;;;;;;0.40;0.20;;;8.80;99.90;;;;;;5100178;28;20176;-78
2020/12/01 13:11:19;;;;;;;0.30;0.30;;;8.80;99.90;;;;;;5100854;28;20669;-78
2020/12/01 13:13:45;;;;;;;0.87;0.57;;;8.90;99.90;;;;;;5124664;28;20181;-78
2020/12/01 13:16:12;;;;;;;0.67;0.57;;;8.90;99.90;;;;;;5120597;28;20161;-78
2020/12/01 13:18:38;;;;;;;0.90;0.63;;;8.90;99.90;;;;;;5121480;28;20157;-78
2020/12/01 13:21:03;;;;;;;0.40;0.23;;;8.90;99.90;;;;;;5104692;28;20222;-78
2020/12/01 13:23:29;;;;;;;1.83;1.00;;;8.90;99.90;;;;;;5122181;28;20181;-78
2020/12/01 13:25:54;;;;;;;0.50;0.50;;;8.90;99.90;;;;;;5104915;28;20181;-78
2020/12/01 13:28:20;;;;;;;1.23;1.23;;;8.90;99.90;;;;;;5102945;28;20229;-78
2020/12/01 13:30:45;;;;;;;0.50;0.50;;;8.80;99.90;;;;;;5104269;28;20185;-78
2020/12/01 13:33:11;;;;;;;0.73;0.73;;;8.90;99.90;;;;;;5124988;28;20208;-79
2020/12/01 13:35:37;;;;;;;0.53;0.53;;;8.90;99.90;;;;;;5105222;28;20162;-78
2020/12/01 13:38:03;;;;;;;0.00;0.00;;;8.90;99.90;;;;;;5123177;28;20162;-78
2020/12/01 13:40:28;;;;;;;0.30;0.30;;;8.90;99.90;;;;;;5122266;28;20165;-78
2020/12/01 13:42:54;;;;;;;0.20;0.20;;;8.90;99.90;;;;;;5122248;28;20208;-78
2020/12/01 13:45:20;;;;;;;0.23;0.17;;;8.90;99.90;;;;;;5119258;28;20200;-78
2020/12/01 13:47:46;;;;;;;0.33;0.23;;;8.90;99.90;;;;;;5101411;28;20181;-78
2020/12/01 13:50:15;;;;;;;0.00;0.00;;;8.80;99.90;;;;;;5101701;28;20198;-78
2020/12/01 13:52:40;;;;;;;0.00;0.00;;;8.80;99.90;;;;;;5101048;28;20189;-79
2020/12/01 13:55:07;;;;;;;0.60;0.23;;;8.80;99.90;;;;;;5120316;28;20162;-77
2020/12/01 13:57:33;;;;;;;0.23;0.23;;;8.80;99.90;;;;;;5118192;28;20266;-78
2020/12/01 13:59:58;;;;;;;0.50;0.20;;;8.80;99.90;;;;;;5118648;28;20657;-79
2020/12/01 14:02:25;;;;;;;0.10;0.10;;;8.80;99.90;;;;;;5105670;28;20581;-79